Time;durP1;ratioP1;P1;durP2;ratioP2;P2;SDS_P1;SDS_P2;PMS_P1;PMS_P2;Temp;Humidity;BMP_temperature;BMP_pressure;BME280_temperature;BME280_humidity;BME280_pressure;Samples;Min_cycle;Max_cycle;Signal;HPM_P1;HPM_P2
2023/04/26 00:01:46;;;;;;;;;;;10.40;88.60;;;10.60;55.13;98745.34;4907246;28;114150;-79
2023/04/26 00:04:12;;;;;;;;;;;10.40;88.60;;;10.57;54.81;98748.75;4908530;28;113198;-79
2023/04/26 00:06:38;;;;;;;;;;;10.40;88.60;;;10.56;55.07;98749.88;4910560;28;123761;-79
2023/04/26 00:09:06;;;;;;;;;;;10.40;88.50;;;10.56;55.22;98752.66;4909863;28;123170;-78
2023/04/26 00:11:33;;;;;;;;;;;10.30;88.40;;;10.54;54.92;98754.91;4908951;28;114362;-81
2023/04/26 00:14:00;;;;;;;;;;;10.30;88.60;;;10.51;54.88;98755.53;4909484;28;114000;-81
2023/04/26 00:16:27;;;;;;;;;;;10.30;88.30;;;10.50;54.99;98756.66;4909628;28;124492;-79
2023/04/26 00:18:55;;;;;;;;;;;10.30;88.30;;;10.50;55.12;98753.88;4908212;28;123887;-80
2023/04/26 00:21:21;;;;;;;;;;;10.30;88.20;;;10.47;54.65;98759.22;4911497;28;112812;-80
2023/04/26 00:23:49;;;;;;;;;;;10.20;88.10;;;10.46;54.86;98758.41;4910331;28;112831;-79
2023/04/26 00:26:15;;;;;;;;;;;10.30;88.20;;;10.46;55.03;98755.66;4909848;28;123795;-78
2023/04/26 00:28:43;;;;;;;;;;;12.90;90.30;;;10.49;54.92;98756.97;4909275;28;122927;-80
2023/04/26 00:31:15;;;;;;;;;;;10.20;88.10;;;10.48;54.79;98764.44;4908042;28;115428;-80
2023/04/26 00:33:41;;;;;;;;;;;10.20;88.10;;;10.47;54.82;98760.03;4907787;28;115199;-78
2023/04/26 00:36:08;;;;;;;;;;;10.20;88.00;;;10.47;54.48;98753.69;4909963;28;124455;-77
2023/04/26 00:38:34;;;;;;;;;;;10.20;88.00;;;10.48;54.44;98755.34;4907803;28;124064;-78
2023/04/26 00:41:01;;;;;;;;;;;10.20;87.90;;;10.43;54.72;98750.75;4909028;28;114436;-78
2023/04/26 00:43:28;;;;;;;;;;;11.50;89.00;;;10.39;54.41;98755.25;4926475;28;112939;-79
2023/04/26 00:45:54;;;;;;;;;;;10.10;87.60;;;10.34;54.71;98749.84;4908677;28;123244;-79
2023/04/26 00:48:22;;;;;;;;;;;10.10;87.70;;;10.35;54.67;98768.06;4908155;28;123643;-77
2023/04/26 00:50:49;;;;;;;;;;;10.10;87.60;;;10.33;54.44;98756.50;4909990;28;113988;-78
2023/04/26 00:53:18;;;;;;;;;;;10.10;87.60;;;10.30;54.53;98760.72;4926461;28;113660;-77
2023/04/26 00:55:45;;;;;;;;;;;10.10;87.60;;;10.26;54.83;98764.38;4911257;28;123817;-77
2023/04/26 00:58:11;;;;;;;;;;;10.00;87.40;;;10.26;54.44;98762.44;4893856;28;123178;-78
2023/04/26 01:00:37;;;;;;;;;;;10.00;87.50;;;10.24;54.45;98764.69;4905481;28;115432;-77
2023/04/26 01:03:03;;;;;;;;;;;10.00;87.30;;;10.24;54.19;98763.88;4908845;28;113686;-79
2023/04/26 01:05:31;;;;;;;;;;;10.00;87.40;;;10.21;54.10;98757.03;4907721;28;124371;-79
2023/04/26 01:07:58;;;;;;;;;;;9.90;88.20;;;10.19;54.26;98764.81;4908155;28;124186;-77
2023/04/26 01:10:25;;;;;;;;;;;9.90;88.00;;;10.17;53.89;98765.13;4909371;28;114451;-78
2023/04/26 01:12:51;;;;;;;;;;;9.90;87.90;;;10.16;53.90;98760.72;4907416;28;113577;-77
2023/04/26 01:15:17;;;;;;;;;;;9.90;87.90;;;10.16;54.07;98777.28;4910579;28;123709;-78
2023/04/26 01:17:48;;;;;;;;;;;9.90;87.80;;;10.14;53.83;98768.50;4907552;28;124032;-77
2023/04/26 01:20:14;;;;;;;;;;;9.90;87.60;;;10.12;53.59;98767.16;4908988;28;115967;-78
2023/04/26 01:22:41;;;;;;;;;;;9.90;87.50;;;10.13;53.46;98763.31;4908464;28;114635;-77
2023/04/26 01:25:10;;;;;;;;;;;9.90;87.50;;;10.11;53.47;98755.31;4908866;28;124848;-78
2023/04/26 01:27:37;;;;;;;;;;;9.90;87.50;;;10.14;53.44;98762.97;4910226;28;125466;-78
2023/04/26 01:30:04;;;;;;;;;;;9.90;87.40;;;10.14;53.55;98760.22;4909182;28;114985;-78
2023/04/26 01:32:30;;;;;;;;;;;9.90;87.20;;;10.11;53.32;98751.75;4894494;28;112435;-80
2023/04/26 01:34:57;;;;;;;;;;;9.90;87.00;;;10.11;53.06;98751.75;4908497;28;123916;-78
2023/04/26 01:37:23;;;;;;;;;;;9.90;86.90;;;10.09;53.23;98749.28;4909093;28;124013;-77
2023/04/26 01:39:50;;;;;;;;;;;9.90;86.70;;;10.07;53.38;98757.06;4908090;28;115342;-77
2023/04/26 01:42:17;;;;;;;;;;;9.80;86.70;;;10.06;53.23;98760.13;4909184;28;113807;-79
2023/04/26 01:44:43;;;;;;;;;;;9.80;86.40;;;10.04;53.12;98768.72;4907321;28;124557;-77
2023/04/26 01:47:10;;;;;;;;;;;9.80;86.20;;;10.00;52.87;98762.19;4910099;28;123411;-77
2023/04/26 01:49:36;;;;;;;;;;;9.80;86.30;;;9.99;53.36;98759.72;4909226;28;114183;-78
2023/04/26 01:52:02;;;;;;;;;;;9.80;86.40;;;9.98;53.16;98758.13;4908538;28;113453;-77
2023/04/26 01:54:29;;;;;;;;;;;9.80;86.40;;;9.98;52.98;98767.19;4908419;28;124297;-78
2023/04/26 01:56:55;;;;;;;;;;;9.80;86.40;;;9.96;53.16;98758.41;4905998;28;123768;-78
2023/04/26 01:59:22;;;;;;;;;;;9.70;86.30;;;9.98;52.98;98755.34;4906771;28;114407;-78
2023/04/26 02:01:48;;;;;;;;;;;9.80;86.50;;;9.99;52.93;98757.78;4924263;28;113204;-81
2023/04/26 02:04:14;;;;;;;;;;;9.80;86.40;;;9.99;52.87;98762.50;4908307;28;123924;-78
2023/04/26 02:06:41;;;;;;;;;;;9.70;86.30;;;10.00;53.37;98753.91;4905866;28;125010;-77
2023/04/26 02:09:08;;;;;;;;;;;9.80;86.40;;;10.01;52.92;98752.78;4909000;28;116545;-79
2023/04/26 02:11:34;;;;;;;;;;;9.70;86.20;;;10.02;52.76;98765.47;4911436;28;114784;-77
2023/04/26 02:14:01;;;;;;;;;;;9.70;86.30;;;10.01;52.99;98749.22;4912490;28;123764;-79
2023/04/26 02:16:27;;;;;;;;;;;9.70;86.20;;;9.98;53.22;98756.16;4910789;28;124107;-79
2023/04/26 02:18:53;;;;;;;;;;;9.70;86.20;;;9.97;52.84;98751.78;4911335;28;115031;-78
2023/04/26 02:21:20;;;;;;;;;;;9.70;86.30;;;9.97;52.72;98757.31;4910815;28;113731;-77
2023/04/26 02:23:46;;;;;;;;;;;9.70;86.40;;;9.95;53.39;98754.84;4908566;28;124100;-77
2023/04/26 02:26:13;;;;;;;;;;;9.70;86.50;;;9.92;53.64;98746.38;4910991;28;124108;-78
2023/04/26 02:28:40;;;;;;;;;;;9.70;86.70;;;9.89;53.73;98744.22;4912210;28;113430;-78
2023/04/26 02:31:06;;;;;;;;;;;9.70;87.10;;;9.86;54.51;98744.81;4912646;28;113566;-77
2023/04/26 02:33:53;;;;;;;;;;;9.60;87.60;;;9.83;54.70;98748.22;4910043;28;123998;-79
2023/04/26 02:36:19;;;;;;;;;;;9.60;87.50;;;9.80;54.92;98757.09;4872657;28;124088;-78
2023/04/26 02:38:46;;;;;;;;;;;9.60;87.90;;;9.73;54.63;98757.53;4872872;28;114405;-77
2023/04/26 02:41:12;;;;;;;;;;;9.50;88.10;;;9.73;55.14;98761.09;4870737;28;114047;-77
2023/04/26 02:43:38;;;;;;;;;;;9.60;88.40;;;9.70;54.97;98758.97;4869908;28;124253;-79
2023/04/26 02:46:06;;;;;;;;;;;9.50;88.40;;;9.66;55.11;98763.44;4869825;28;123437;-79
2023/04/26 02:48:32;;;;;;;;;;;9.50;88.60;;;9.64;55.62;98760.19;4856499;28;113540;-78
2023/04/26 02:50:59;;;;;;;;;;;9.50;88.80;;;9.64;55.83;98762.13;4870440;28;113931;-79
2023/04/26 02:53:26;;;;;;;;;;;7.40;87.10;;;9.61;55.81;98760.78;4871828;28;124119;-78
2023/04/26 02:55:52;;;;;;;;;;;9.40;89.00;;;9.64;56.21;98764.88;4857387;28;123676;-78
2023/04/26 02:58:18;;;;;;;;;;;9.50;89.50;;;9.63;56.56;98757.75;4872565;28;115287;-79
2023/04/26 03:00:48;;;;;;;;;;;9.50;90.00;;;9.59;56.52;98765.81;4871530;28;115323;-78
2023/04/26 03:03:16;;;;;;;;;;;9.40;90.00;;;9.58;56.68;98758.66;4869902;28;124163;-77
2023/04/26 03:05:42;;;;;;;;;;;9.40;90.00;;;9.60;56.94;98759.16;4868590;28;123752;-80
2023/04/26 03:08:09;;;;;;;;;;;9.40;90.20;;;9.60;56.73;98758.34;4872305;28;114457;-78
2023/04/26 03:10:35;;;;;;;;;;;9.40;90.20;;;9.61;57.05;98758.03;4869163;28;113771;-77
2023/04/26 03:13:03;;;;;;;;;;;9.40;90.30;;;9.62;57.50;98762.44;4881783;28;124179;-78
2023/04/26 03:15:30;;;;;;;;;;;9.40;90.50;;;9.62;57.10;98764.41;4912464;28;123303;-78
2023/04/26 03:17:59;;;;;;;;;;;9.40;90.60;;;9.64;57.31;98760.19;4908487;28;114663;-77
2023/04/26 03:20:26;;;;;;;;;;;9.40;90.70;;;9.65;57.60;98761.84;4913650;28;113743;-78
2023/04/26 03:22:55;;;;;;;;;;;9.40;90.80;;;9.66;57.78;98768.97;4895769;28;123413;-77
2023/04/26 03:25:21;;;;;;;;;;;9.40;90.80;;;9.66;58.02;98763.44;4909169;28;124434;-78
2023/04/26 03:27:47;;;;;;;;;;;9.40;90.90;;;9.67;57.63;98769.78;4912321;28;114130;-79
2023/04/26 03:30:14;;;;;;;;;;;9.40;91.00;;;9.64;57.83;98771.22;4912442;28;112710;-78
2023/04/26 03:32:40;;;;;;;;;;;9.40;91.00;;;9.61;58.34;98774.59;4910297;28;124302;-77
2023/04/26 03:35:07;;;;;;;;;;;9.40;91.10;;;9.62;58.12;98779.00;4910585;28;123029;-78
2023/04/26 03:37:33;;;;;;;;;;;9.40;91.10;;;9.62;58.41;98769.91;4910913;28;113634;-77
2023/04/26 03:40:00;;;;;;;;;;;9.40;91.10;;;9.62;57.97;98773.47;4910930;28;113489;-77
2023/04/26 03:42:27;;;;;;;;;;;9.40;91.20;;;9.62;58.20;98762.44;4912676;28;124206;-77
2023/04/26 03:44:53;;;;;;;;;;;9.40;91.20;;;9.64;58.05;98760.19;4914318;28;123972;-77
2023/04/26 03:47:22;;;;;;;;;;;9.40;91.30;;;9.66;58.29;98763.44;4911784;28;116330;-77
2023/04/26 03:49:48;;;;;;;;;;;9.40;91.30;;;9.68;58.30;98766.72;4912302;28;114030;-77
2023/04/26 03:52:14;;;;;;;;;;;9.40;91.40;;;9.69;58.00;98754.56;4912119;28;124380;-77
2023/04/26 03:54:40;;;;;;;;;;;9.40;91.40;;;9.69;58.44;98760.06;4910056;28;123904;-78
2023/04/26 03:57:07;;;;;;;;;;;9.40;91.40;;;9.70;58.33;98760.91;4910516;28;114210;-80
2023/04/26 03:59:33;;;;;;;;;;;9.40;91.40;;;9.71;58.25;98765.28;4911793;28;112970;-80
2023/04/26 04:01:59;;;;;;;;;;;10.20;91.50;;;9.69;58.01;98768.34;4908563;28;124079;-78
2023/04/26 04:04:26;;;;;;;;;;;9.40;91.40;;;9.69;57.80;98762.84;4910650;28;123281;-79
2023/04/26 04:06:52;;;;;;;;;;;9.40;91.40;;;9.68;57.98;98771.44;4910180;28;115093;-81
2023/04/26 04:09:18;;;;;;;;;;;9.40;91.30;;;9.67;58.01;98769.78;4909425;28;113602;-79
2023/04/26 04:11:45;;;;;;;;;;;9.40;91.30;;;9.67;58.24;98776.13;4908415;28;124367;-78
2023/04/26 04:14:12;;;;;;;;;;;9.40;91.30;;;9.65;58.09;98767.34;4909865;28;124248;-78
2023/04/26 04:16:38;;;;;;;;;;;11.40;91.70;;;9.64;57.74;98771.22;4910235;28;114603;-79
2023/04/26 04:19:05;;;;;;;;;;;9.40;91.40;;;9.61;58.23;98762.75;4911523;28;113190;-78
2023/04/26 04:21:31;;;;;;;;;;;9.30;91.30;;;9.62;57.92;98765.22;4909684;28;124474;-78
2023/04/26 04:23:58;;;;;;;;;;;9.30;91.40;;;9.60;58.18;98763.88;4910340;28;123606;-79
2023/04/26 04:26:24;;;;;;;;;;;9.30;91.30;;;9.62;57.70;98761.63;4911832;28;113961;-78
2023/04/26 04:28:52;;;;;;;;;;;10.90;91.50;;;9.61;57.92;98766.31;4926856;28;113354;-78
2023/04/26 04:31:18;;;;;;;;;;;9.30;91.30;;;9.60;57.81;98764.69;4908360;28;124588;-79
2023/04/26 04:33:44;;;;;;;;;;;9.30;91.20;;;9.59;57.72;98764.97;4909866;28;124536;-79
2023/04/26 04:36:12;;;;;;;;;;;9.30;91.20;;;9.61;57.69;98776.53;4909898;28;115376;-81
2023/04/26 04:38:38;;;;;;;;;;;9.30;91.20;;;9.60;57.81;98772.97;4910101;28;114503;-83
2023/04/26 04:41:04;;;;;;;;;;;9.30;91.20;;;9.58;57.74;98779.91;4908725;28;124125;-79
2023/04/26 04:43:31;;;;;;;;;;;9.30;91.30;;;9.54;58.24;98781.63;4909902;28;123796;-80
2023/04/26 04:45:57;;;;;;;;;;;9.20;91.30;;;9.51;57.75;98774.81;4910262;28;115035;-79
2023/04/26 04:48:23;;;;;;;;;;;9.30;91.30;;;9.53;58.15;98783.56;4909865;28;113515;-80
2023/04/26 04:50:50;;;;;;;;;;;9.30;91.30;;;9.53;57.88;98769.78;4911168;28;124042;-78
2023/04/26 04:53:16;;;;;;;;;;;9.30;91.40;;;9.55;57.86;98783.28;4909490;28;124083;-79
2023/04/26 04:55:42;;;;;;;;;;;9.30;91.30;;;9.56;57.82;98780.19;4894183;28;113599;-78
2023/04/26 04:58:09;;;;;;;;;;;9.30;91.40;;;9.55;57.86;98780.53;4908893;28;114425;-78
2023/04/26 05:00:36;;;;;;;;;;;9.30;91.40;;;9.57;58.15;98790.13;4908175;28;127912;-78
2023/04/26 05:03:03;;;;;;;;;;;9.70;91.60;;;9.58;58.25;98793.69;4908567;28;123762;-79
2023/04/26 05:05:30;;;;;;;;;;;9.30;91.40;;;9.60;58.20;98794.22;4909084;28;114498;-80
2023/04/26 05:07:56;;;;;;;;;;;9.30;91.40;;;9.61;57.97;98793.91;4910244;28;113219;-79
2023/04/26 05:10:22;;;;;;;;;;;9.30;91.50;;;9.65;57.85;98797.69;4912168;28;124061;-79
2023/04/26 05:12:49;;;;;;;;;;;9.40;91.50;;;9.67;58.50;98795.44;4908405;28;123877;-78
2023/04/26 05:15:15;;;;;;;;;;;9.40;91.60;;;9.70;58.57;98802.28;4910431;28;113534;-81
2023/04/26 05:17:41;;;;;;;;;;;9.40;91.90;;;9.78;58.79;98809.00;4908685;28;114042;-81
2023/04/26 05:20:08;;;;;;;;;;;9.40;92.10;;;9.85;59.76;98814.94;4910239;28;123705;-79
2023/04/26 05:22:35;;;;;;;;;;;9.50;92.50;;;9.95;60.02;98809.22;4909760;28;122819;-85
2023/04/26 05:25:03;;;;;;;;;;;9.50;92.90;;;10.03;59.39;98816.78;4908805;28;115699;-83
2023/04/26 05:27:29;;;;;;;;;;;9.50;92.80;;;10.12;60.12;98812.16;4907951;28;114594;-81
2023/04/26 05:29:55;;;;;;;;;;;9.60;93.10;;;10.17;59.50;98812.03;4907976;28;124361;-80
2023/04/26 05:32:22;;;;;;;;;;;9.70;92.80;;;10.16;58.56;98818.72;4907087;28;123804;-78
2023/04/26 05:34:48;;;;;;;;;;;9.70;92.50;;;10.11;58.28;98816.06;4908265;28;114266;-80
2023/04/26 05:37:16;;;;;;;;;;;9.70;92.30;;;10.10;58.66;98817.19;4905635;28;113681;-81
2023/04/26 05:39:42;;;;;;;;;;;9.70;92.20;;;10.14;58.39;98823.72;4907473;28;124053;-84
2023/04/26 05:42:11;;;;;;;;;;;9.80;92.10;;;10.15;58.06;98821.75;4908219;28;124777;-82
2023/04/26 05:44:37;;;;;;;;;;;9.80;92.00;;;10.18;57.92;98829.44;4910016;28;114319;-81
2023/04/26 05:47:03;;;;;;;;;;;9.80;91.90;;;10.22;58.13;98824.13;4911862;28;113567;-83
2023/04/26 05:49:30;;;;;;;;;;;9.80;91.80;;;10.18;57.73;98830.25;4911082;28;124665;-81
2023/04/26 05:51:59;;;;;;;;;;;9.80;91.70;;;10.16;57.81;98843.56;4909953;28;125985;-82
2023/04/26 05:54:27;;;;;;;;;;;9.80;91.60;;;10.13;57.37;98833.13;4911890;28;114137;-83
2023/04/26 05:56:54;;;;;;;;;;;9.80;91.50;;;10.18;57.59;98835.78;4911260;28;113795;-81
2023/04/26 05:59:20;;;;;;;;;;;9.80;91.50;;;10.18;57.45;98832.19;4911266;28;124530;-80
2023/04/26 06:01:46;;;;;;;;;;;9.90;91.40;;;10.18;56.95;98827.50;4909912;28;123256;-81
2023/04/26 06:04:13;;;;;;;;;;;11.40;91.50;;;10.22;57.19;98835.16;4914778;28;114092;-81
2023/04/26 06:06:39;;;;;;;;;;;9.90;91.30;;;10.25;56.63;98840.06;4911805;28;113739;-80
2023/04/26 06:09:05;;;;;;;;;;;9.90;91.30;;;10.28;56.52;98836.72;4911910;28;125790;-80
2023/04/26 06:11:33;;;;;;;;;;;9.90;91.20;;;10.29;56.34;98835.56;4911938;28;124599;-83
2023/04/26 06:13:59;;;;;;;;;;;9.90;91.10;;;10.28;56.36;98839.47;4909709;28;115402;-84
2023/04/26 06:16:28;;;;;;;;;;;9.90;91.10;;;10.29;56.86;98841.09;4912057;28;114726;-81
2023/04/26 06:18:54;;;;;;;;;;;9.90;91.20;;;10.38;57.25;98836.50;4910166;28;124387;-82
2023/04/26 06:21:20;;;;;;;;;;;10.00;91.00;;;10.48;57.09;98844.56;4911697;28;124031;-81
2023/04/26 06:23:47;;;;;;;;;;;10.00;90.90;;;10.50;56.37;98845.03;4911607;28;114655;-82
2023/04/26 06:26:13;;;;;;;;;;;10.10;90.40;;;10.56;55.98;98846.59;4911702;28;113156;-84
2023/04/26 06:28:39;;;;;;;;;;;11.20;90.90;;;10.69;55.89;98849.59;4913411;28;123920;-79
2023/04/26 06:31:05;;;;;;;;;;;10.20;90.50;;;10.76;55.83;98844.47;4911772;28;124372;-83
2023/04/26 06:33:33;;;;;;;;;;;10.30;90.30;;;10.76;55.03;98844.47;4912036;28;114472;-80
2023/04/26 06:35:59;;;;;;;;;;;10.30;89.90;;;10.70;54.73;98846.53;4910539;28;113700;-83
2023/04/26 06:38:25;;;;;;;;;;;10.20;89.40;;;10.66;54.36;98856.56;4909139;28;125398;-82
2023/04/26 06:40:52;;;;;;;;;;;10.20;89.10;;;10.64;53.96;98845.03;4910774;28;124708;-83
2023/04/26 06:43:20;;;;;;;;;;;11.80;90.00;;;10.67;54.14;98846.34;4910694;28;114524;-80
2023/04/26 06:45:47;;;;;;;;;;;10.30;88.50;;;10.75;53.99;98853.91;4911035;28;113376;-84
2023/04/26 06:48:15;;;;;;;;;;;11.60;89.60;;;10.83;53.14;98855.91;4911950;28;123686;-84
2023/04/26 06:50:42;;;;;;;;;;;10.30;87.50;;;10.90;52.70;98853.50;4909926;28;124590;-85
2023/04/26 06:53:08;;;;;;;;;;;10.40;87.00;;;10.91;52.09;98852.41;4912320;28;113538;-82
2023/04/26 06:55:34;;;;;;;;;;;10.40;86.10;;;10.95;51.37;98847.88;4926659;28;113249;-83
2023/04/26 06:58:03;;;;;;;;;;;10.50;85.30;;;11.02;51.67;98853.78;4908808;28;124223;-82
2023/04/26 07:00:30;;;;;;;;;;;10.40;85.30;;;11.12;51.21;98854.66;4909671;28;123542;-82
2023/04/26 07:02:56;;;;;;;;;;;10.60;85.90;;;11.23;51.49;98854.09;4910029;28;115154;-81
2023/04/26 07:05:23;;;;;;;;;;;10.70;85.50;;;11.24;50.73;98846.59;4910714;28;114617;-82
2023/04/26 07:07:49;;;;;;;;;;;10.70;84.30;;;11.21;50.46;98838.94;4909934;28;123544;-84
2023/04/26 07:10:16;;;;;;;;;;;10.70;84.10;;;11.20;50.02;98842.81;4912125;28;123043;-80
2023/04/26 07:12:42;;;;;;;;;;;10.70;83.40;;;11.18;47.74;98834.06;4910077;28;114715;-83
2023/04/26 07:15:09;;;;;;;;;;;10.70;80.20;;;11.19;48.01;98835.66;4910257;28;113555;-83
2023/04/26 07:17:35;;;;;;;;;;;10.70;80.40;;;11.24;47.84;98830.00;4910541;28;122443;-81
2023/04/26 07:20:01;;;;;;;;;;;10.70;80.00;;;11.33;47.56;98833.63;4909595;28;123662;-84
2023/04/26 07:22:28;;;;;;;;;;;10.80;79.50;;;11.38;47.20;98822.44;4910570;28;114193;-79
2023/04/26 07:24:54;;;;;;;;;;;10.90;79.10;;;11.48;45.73;98827.72;4911296;28;113208;-80
2023/04/26 07:27:20;;;;;;;;;;;10.90;77.00;;;11.54;46.48;98830.34;4911533;28;124373;-81
2023/04/26 07:29:47;;;;;;;;;;;10.90;78.10;;;11.60;45.91;98829.88;4909973;28;124058;-81
2023/04/26 07:32:13;;;;;;;;;;;11.00;77.50;;;11.64;45.74;98824.53;4912731;28;114114;-83
2023/04/26 07:34:40;;;;;;;;;;;11.10;77.20;;;11.69;45.72;98818.84;4911169;28;113874;-86
2023/04/26 07:37:07;;;;;;;;;;;11.20;77.50;;;11.76;44.90;98827.50;4910762;28;124311;-81
2023/04/26 07:39:34;;;;;;;;;;;11.20;76.30;;;11.80;45.21;98817.44;4911325;28;123499;-81
2023/04/26 07:42:00;;;;;;;;;;;11.20;76.00;;;11.82;44.10;98814.31;4909046;28;115046;-83
2023/04/26 07:44:26;;;;;;;;;;;11.20;74.40;;;11.84;44.20;98821.19;4910181;28;113641;-84
2023/04/26 07:46:52;;;;;;;;;;;11.30;74.90;;;11.89;44.24;98815.53;4909384;28;124249;-83
2023/04/26 07:49:19;;;;;;;;;;;11.40;74.70;;;11.94;43.39;98823.69;4911919;28;123921;-79
2023/04/26 07:51:45;;;;;;;;;;;11.40;73.70;;;11.98;43.44;98820.28;4908189;28;116245;-85
2023/04/26 07:54:11;;;;;;;;;;;11.40;73.80;;;12.02;44.14;98819.31;4911211;28;114659;-83
2023/04/26 07:56:40;;;;;;;;;;;11.50;74.20;;;12.12;44.04;98820.97;4907784;28;124893;-82
2023/04/26 07:59:07;;;;;;;;;;;11.60;74.50;;;12.23;43.67;98822.31;4925385;28;123361;-83
2023/04/26 08:01:33;;;;;;;;;;;11.70;74.00;;;12.33;43.87;98815.63;4909682;28;114142;-82
2023/04/26 08:03:59;;;;;;;;;;;11.80;74.20;;;12.45;43.39;98826.09;4909461;28;114405;-81
2023/04/26 08:06:28;;;;;;;;;;;11.90;74.10;;;12.50;43.67;98825.94;4908389;28;124222;-84
2023/04/26 08:08:54;;;;;;;;;;;12.00;74.20;;;12.58;43.58;98823.16;4908701;28;123664;-83
2023/04/26 08:11:20;;;;;;;;;;;12.10;74.30;;;12.68;43.63;98821.19;4909540;28;114433;-82
2023/04/26 08:13:46;;;;;;;;;;;12.10;74.00;;;12.74;43.49;98822.69;4909036;28;113830;-82
2023/04/26 08:16:16;;;;;;;;;;;12.20;73.60;;;12.78;42.84;98827.22;4907616;28;124775;-81
2023/04/26 08:18:42;;;;;;;;;;;12.20;72.50;;;12.77;42.82;98825.63;4909970;28;122877;-79
2023/04/26 08:21:08;;;;;;;;;;;12.20;72.60;;;12.85;42.73;98825.94;4909408;28;114403;-81
2023/04/26 08:23:35;;;;;;;;;;;12.30;72.80;;;12.91;42.52;98833.75;4907076;28;114040;-83
2023/04/26 08:26:01;;;;;;;;;;;12.30;72.10;;;12.97;42.30;98820.53;4910015;28;123816;-81
2023/04/26 08:28:28;;;;;;;;;;;13.40;72.90;;;13.07;41.73;98827.72;4908411;28;124548;-83
2023/04/26 08:30:54;;;;;;;;;;;12.50;71.20;;;13.09;41.29;98823.47;4908492;28;114528;-84
2023/04/26 08:33:22;;;;;;;;;;;12.50;70.20;;;13.10;41.55;98822.31;4909536;28;114169;-81
2023/04/26 08:35:49;;;;;;;;;;;12.60;70.70;;;13.09;41.36;98812.38;4908539;28;125492;-83
2023/04/26 08:38:15;;;;;;;;;;;12.70;70.90;;;13.11;41.88;98823.13;4908902;28;124158;-80
2023/04/26 08:40:42;;;;;;;;;;;12.70;70.70;;;13.13;41.92;98810.56;4908242;28;115997;-83
2023/04/26 08:43:10;;;;;;;;;;;12.70;70.90;;;13.20;41.91;98818.41;4907398;28;114740;-84
2023/04/26 08:45:38;;;;;;;;;;;12.70;70.90;;;13.23;41.71;98818.53;4907206;28;123918;-83
2023/04/26 08:48:10;;;;;;;;;;;12.80;70.80;;;13.23;41.86;98812.19;4906498;28;124094;-82
2023/04/26 08:50:37;;;;;;;;;;;12.80;70.30;;;13.18;41.34;98832.59;4908393;28;113800;-83
2023/04/26 08:53:04;;;;;;;;;;;12.80;69.20;;;13.12;40.97;98827.56;4908147;28;113961;-82
2023/04/26 08:55:32;;;;;;;;;;;12.70;68.90;;;13.09;41.28;98829.03;4923589;28;124331;-81
2023/04/26 08:58:00;;;;;;;;;;;12.70;69.50;;;13.09;41.56;98826.25;4911408;28;125627;-82
2023/04/26 09:00:27;;;;;;;;;;;12.10;69.10;;;13.11;41.49;98825.91;4912689;28;114425;-82
2023/04/26 09:02:54;;;;;;;;;;;12.80;69.80;;;13.18;41.55;98815.13;4911212;28;113935;-81
2023/04/26 09:05:23;;;;;;;;;;;12.80;69.90;;;13.20;41.38;98818.41;4905809;28;124860;-80
2023/04/26 09:07:50;;;;;;;;;;;12.80;69.30;;;13.17;40.75;98824.59;4905053;28;124173;-81
2023/04/26 09:10:22;;;;;;;;;;;12.80;68.60;;;13.16;41.28;98823.78;4911201;28;114449;-84
2023/04/26 09:12:52;;;;;;;;;;;12.80;69.10;;;13.19;41.21;98822.28;4910041;28;113691;-81
2023/04/26 09:15:23;;;;;;;;;;;12.80;69.10;;;13.20;41.07;98824.75;4910767;28;125071;-82
2023/04/26 09:17:50;;;;;;;;;;;12.90;68.90;;;13.21;41.01;98825.56;4909458;28;124539;-80
2023/04/26 09:20:30;;;;;;;;;;;12.90;68.90;;;13.22;40.92;98822.47;4908446;28;113909;-82
2023/04/26 09:23:03;;;;;;;;;;;12.90;68.90;;;13.25;41.18;98815.44;4907755;28;114098;-83
2023/04/26 09:25:30;;;;;;;;;;;12.90;68.90;;;13.28;41.20;98819.56;4906416;28;124390;-80
2023/04/26 09:27:57;;;;;;;;;;;12.90;68.90;;;13.26;40.88;98822.66;4908477;28;123948;-81
2023/04/26 09:30:24;;;;;;;;;;;13.00;68.20;;;13.21;41.08;98809.72;4906040;28;115822;-84
2023/04/26 09:33:02;;;;;;;;;;;12.90;68.20;;;13.19;41.07;98808.44;4907108;28;114539;-80
2023/04/26 09:35:30;;;;;;;;;;;12.90;68.10;;;13.19;40.86;98806.50;4907267;28;124689;-82
2023/04/26 09:38:00;;;;;;;;;;;12.90;67.90;;;13.20;40.66;98796.19;4906646;28;124897;-81
2023/04/26 09:40:29;;;;;;;;;;;12.90;67.60;;;13.17;40.67;98803.22;4909453;28;114119;-84
2023/04/26 09:42:58;;;;;;;;;;;12.90;67.20;;;13.10;40.69;98797.34;4907211;28;113798;-83
2023/04/26 09:45:26;;;;;;;;;;;12.70;66.80;;;13.08;40.60;98798.81;4907795;28;123830;-78
2023/04/26 09:47:52;;;;;;;;;;;12.70;67.50;;;13.05;40.84;98803.88;4904446;28;124128;-79
2023/04/26 09:50:31;;;;;;;;;;;12.70;67.40;;;13.06;40.99;98801.94;4923428;28;113339;-81
2023/04/26 09:52:58;;;;;;;;;;;12.70;67.70;;;13.08;41.01;98812.69;4921367;28;113182;-84
2023/04/26 09:55:27;;;;;;;;;;;12.70;67.80;;;13.08;40.78;98807.16;4902001;28;124804;-84
2023/04/26 09:57:54;;;;;;;;;;;12.70;67.50;;;13.07;40.51;98802.75;4906881;28;125894;-79
2023/04/26 10:00:20;;;;;;;;;;;11.80;66.20;;;12.98;40.41;98814.69;4907036;28;115538;-83
2023/04/26 10:02:47;;;;;;;;;;;12.60;66.90;;;12.94;40.61;98801.78;4905335;28;113879;-84
2023/04/26 10:05:13;;;;;;;;;;;12.50;67.00;;;12.95;40.62;98806.19;4907792;28;124148;-83
2023/04/26 10:07:40;;;;;;;;;;;12.50;67.00;;;12.97;40.58;98803.91;4906345;28;124136;-82
2023/04/26 10:10:07;;;;;;;;;;;12.50;67.10;;;12.97;40.67;98801.13;4906641;28;114346;-80
2023/04/26 10:12:33;;;;;;;;;;;12.50;67.20;;;12.97;40.86;98799.16;4909857;28;113525;-82
2023/04/26 10:15:00;;;;;;;;;;;12.50;67.10;;;12.97;40.60;98788.06;4907288;28;123860;-82
2023/04/26 10:17:26;;;;;;;;;;;12.60;67.00;;;12.99;40.51;98787.75;4905385;28;123899;-83
2023/04/26 10:19:57;;;;;;;;;;;12.60;67.00;;;13.02;40.69;98789.88;4907938;28;114667;-81
2023/04/26 10:22:27;;;;;;;;;;;12.60;67.10;;;13.02;40.38;98785.13;4904418;28;114512;-82
2023/04/26 10:24:54;;;;;;;;;;;12.60;66.50;;;13.05;40.54;98786.44;4905445;28;124108;-84
2023/04/26 10:27:43;;;;;;;;;;;12.60;67.00;;;13.18;40.81;98790.16;4906741;28;124130;-84
2023/04/26 10:30:19;;;;;;;;;;;12.70;67.30;;;13.28;40.27;98786.25;4913213;28;108418;-82
2023/04/26 10:32:50;;;;;;;;;;;12.80;66.70;;;13.32;40.19;98781.66;4909240;28;114005;-80
2023/04/26 10:35:18;;;;;;;;;;;12.80;66.20;;;13.37;40.16;98776.75;4913837;28;124282;-82
2023/04/26 10:38:19;;;;;;;;;;;12.90;66.80;;;13.51;39.78;98781.28;4909850;28;124427;-81
2023/04/26 10:40:45;;;;;;;;;;;13.00;66.70;;;13.54;39.31;98777.81;4869604;28;113875;-82
2023/04/26 10:43:14;;;;;;;;;;;14.00;66.70;;;13.54;39.43;98773.13;4909379;28;114183;-82
2023/04/26 10:45:42;;;;;;;;;;;13.00;65.50;;;13.56;39.36;98773.56;4909543;28;124851;-80
2023/04/26 10:48:19;;;;;;;;;;;13.10;65.10;;;13.56;38.51;98770.78;4895494;28;123446;-85
2023/04/26 10:51:00;;;;;;;;;;;13.10;64.30;;;13.49;38.25;98764.97;4909217;28;114639;-84
2023/04/26 10:53:31;;;;;;;;;;;13.00;63.30;;;13.43;38.52;98778.22;4913408;28;114422;-79
2023/04/26 10:55:58;;;;;;;;;;;13.00;63.80;;;13.45;38.93;98770.34;4909370;28;124786;-82
2023/04/26 10:58:31;;;;;;;;;;;13.00;64.10;;;13.50;38.49;98761.03;4908166;28;124489;-84
2023/04/26 11:01:16;;;;;;;;;;;13.10;64.20;;;13.57;38.82;98761.34;4908972;28;114666;-85
2023/04/26 11:04:07;;;;;;;;;;;13.20;64.50;;;13.67;38.91;98762.91;4909862;28;113567;-82
2023/04/26 11:06:50;;;;;;;;;;;13.30;64.60;;;13.80;38.73;98769.38;4902909;28;123911;-81
2023/04/26 11:09:38;;;;;;;;;;;13.40;64.60;;;13.89;38.69;98759.88;4910273;28;123875;-82
2023/04/26 11:12:05;;;;;;;;;;;13.40;64.40;;;13.97;38.58;98763.75;4907516;28;115531;-83
2023/04/26 11:14:34;;;;;;;;;;;13.50;64.10;;;14.06;37.80;98752.59;4909965;28;114525;-85
2023/04/26 11:17:09;;;;;;;;;;;13.60;62.90;;;14.13;37.71;98755.63;4910842;28;124214;-82